Time;durP1;ratioP1;P1;durP2;ratioP2;P2;SDS_P1;SDS_P2;PMS_P1;PMS_P2;Temp;Humidity;BMP_temperature;BMP_pressure;BME280_temperature;BME280_humidity;BME280_pressure;Samples;Min_cycle;Max_cycle;Signal;HPM_P1;HPM_P2
2020/01/08 00:02:51;;;;;;;4.07;3.67;;;;;;;19.12;39.32;101837.12;;;;-49
2020/01/08 00:05:51;;;;;;;3.99;3.65;;;;;;;19.10;39.31;101833.84;;;;-49
2020/01/08 00:08:51;;;;;;;3.87;3.51;;;;;;;19.08;39.33;101831.16;;;;-49
2020/01/08 00:11:51;;;;;;;4.54;3.75;;;;;;;19.06;39.30;101836.25;;;;-49
2020/01/08 00:14:51;;;;;;;3.93;3.58;;;;;;;19.05;39.31;101833.33;;;;-48
2020/01/08 00:17:51;;;;;;;3.75;3.43;;;;;;;19.04;39.33;101830.92;;;;-49
2020/01/08 00:20:51;;;;;;;4.03;3.59;;;;;;;19.00;39.29;101822.73;;;;-49
2020/01/08 00:23:51;;;;;;;4.17;3.77;;;;;;;18.99;39.35;101821.31;;;;-48
2020/01/08 00:26:51;;;;;;;3.71;3.41;;;;;;;18.99;39.33;101817.19;;;;-49
2020/01/08 00:29:51;;;;;;;4.23;3.79;;;;;;;18.97;39.33;101809.85;;;;-48
2020/01/08 00:32:51;;;;;;;4.01;3.62;;;;;;;18.95;39.39;101802.52;;;;-49
2020/01/08 00:35:51;;;;;;;3.99;3.59;;;;;;;18.93;39.37;101810.88;;;;-49
2020/01/08 00:38:51;;;;;;;3.92;3.52;;;;;;;18.92;39.40;101807.80;;;;-49
2020/01/08 00:41:51;;;;;;;3.82;3.52;;;;;;;18.90;39.37;101818.97;;;;-49
2020/01/08 00:44:51;;;;;;;3.92;3.51;;;;;;;18.89;39.36;101818.29;;;;-48
2020/01/08 00:47:51;;;;;;;3.81;3.42;;;;;;;18.87;39.41;101819.32;;;;-49
2020/01/08 00:50:51;;;;;;;3.91;3.51;;;;;;;18.85;39.39;101817.57;;;;-49
2020/01/08 00:53:51;;;;;;;3.61;3.31;;;;;;;18.84;39.43;101814.48;;;;-49
2020/01/08 00:56:51;;;;;;;3.69;3.33;;;;;;;18.82;39.42;101803.52;;;;-49
2020/01/08 00:59:51;;;;;;;3.90;3.53;;;;;;;18.82;39.41;101807.83;;;;-49
2020/01/08 01:02:53;;;;;;;3.79;3.49;;;;;;;18.80;39.41;101807.46;;;;-48
2020/01/08 01:06:08;;;;;;;3.75;3.42;;;;;;;18.77;39.41;101804.62;;;;-50
2020/01/08 01:11:54;;;;;;;3.89;3.49;;;;;;;18.74;39.40;101810.95;;;;-48
2020/01/08 01:14:53;;;;;;;3.78;3.40;;;;;;;18.74;39.40;101812.66;;;;-49
2020/01/08 01:17:50;;;;;;;3.60;3.30;;;;;;;18.72;39.43;101811.70;;;;-49
2020/01/08 01:20:51;;;;;;;3.93;3.53;;;;;;;18.71;39.43;101805.55;;;;-48
2020/01/08 01:23:51;;;;;;;3.45;3.15;;;;;;;18.70;39.43;101801.28;;;;-48
2020/01/08 01:26:51;;;;;;;3.66;3.36;;;;;;;18.69;39.44;101804.62;;;;-47
2020/01/08 01:29:51;;;;;;;3.42;3.12;;;;;;;18.68;39.50;101812.58;;;;-48
2020/01/08 01:32:50;;;;;;;3.84;3.42;;;;;;;18.66;39.47;101815.12;;;;-48
2020/01/08 01:35:51;;;;;;;3.37;3.07;;;;;;;18.64;39.53;101812.66;;;;-48
2020/01/08 01:38:51;;;;;;;3.48;3.18;;;;;;;18.63;39.51;101814.53;;;;-49
2020/01/08 01:41:51;;;;;;;3.53;3.23;;;;;;;18.62;39.51;101820.25;;;;-48
2020/01/08 01:44:51;;;;;;;3.50;3.20;;;;;;;18.61;39.50;101828.88;;;;-49
2020/01/08 01:47:51;;;;;;;3.60;3.30;;;;;;;18.60;39.54;101830.77;;;;-48
2020/01/08 01:50:51;;;;;;;3.81;3.43;;;;;;;18.59;39.51;101828.19;;;;-49
2020/01/08 01:53:51;;;;;;;3.61;3.31;;;;;;;18.58;39.52;101832.34;;;;-48
2020/01/08 01:56:51;;;;;;;3.85;3.31;;;;;;;18.57;39.54;101834.13;;;;-49
2020/01/08 01:59:51;;;;;;;3.33;3.03;;;;;;;18.56;39.54;101815.42;;;;-48
2020/01/08 02:02:51;;;;;;;3.95;3.34;;;;;;;18.55;39.47;101808.94;;;;-48
2020/01/08 02:05:51;;;;;;;3.41;3.11;;;;;;;18.54;39.53;101816.30;;;;-49
2020/01/08 02:08:51;;;;;;;3.45;3.15;;;;;;;18.52;39.51;101809.41;;;;-48
2020/01/08 02:11:51;;;;;;;3.47;3.15;;;;;;;18.51;39.53;101808.61;;;;-48
2020/01/08 02:14:51;;;;;;;3.41;3.11;;;;;;;18.49;39.50;101798.59;;;;-48
2020/01/08 02:17:51;;;;;;;3.30;3.00;;;;;;;18.49;39.51;101797.15;;;;-49
2020/01/08 02:20:51;;;;;;;3.38;3.05;;;;;;;18.47;39.56;101794.00;;;;-49
2020/01/08 02:23:51;;;;;;;3.19;2.89;;;;;;;18.46;39.57;101793.85;;;;-49
2020/01/08 02:26:50;;;;;;;3.48;3.18;;;;;;;18.45;39.55;101794.17;;;;-48
2020/01/08 02:29:51;;;;;;;3.86;2.90;;;;;;;18.44;39.58;101796.07;;;;-48
2020/01/08 02:32:51;;;;;;;3.11;2.82;;;;;;;18.43;39.59;101791.21;;;;-48
2020/01/08 02:35:51;;;;;;;3.50;3.20;;;;;;;18.42;39.57;101784.94;;;;-48
2020/01/08 02:38:51;;;;;;;3.19;2.89;;;;;;;18.41;39.58;101791.91;;;;-48
2020/01/08 02:41:51;;;;;;;3.22;2.79;;;;;;;18.40;39.62;101795.29;;;;-49
2020/01/08 02:44:55;;;;;;;3.35;3.05;;;;;;;18.40;39.61;101801.69;;;;-57
2020/01/08 02:47:50;;;;;;;3.35;3.05;;;;;;;18.38;39.63;101809.53;;;;-57
2020/01/08 02:50:50;;;;;;;3.68;3.23;;;;;;;18.38;39.62;101800.88;;;;-57
2020/01/08 02:53:51;;;;;;;3.34;3.04;;;;;;;18.36;39.63;101791.83;;;;-48
2020/01/08 02:56:54;;;;;;;3.29;2.99;;;;;;;18.35;39.63;101782.89;;;;-49
2020/01/08 02:59:52;;;;;;;3.44;3.14;;;;;;;18.35;39.60;101781.31;;;;-48
2020/01/08 03:02:52;;;;;;;3.31;2.98;;;;;;;18.34;39.64;101781.53;;;;-48
2020/01/08 03:05:51;;;;;;;3.42;2.90;;;;;;;18.33;39.65;101776.05;;;;-48
2020/01/08 03:08:51;;;;;;;3.13;2.80;;;;;;;18.32;39.64;101777.26;;;;-57
2020/01/08 03:11:51;;;;;;;3.23;2.93;;;;;;;18.32;39.63;101782.05;;;;-57
2020/01/08 03:14:54;;;;;;;3.38;3.01;;;;;;;18.30;39.69;101785.26;;;;-58
2020/01/08 03:17:51;;;;;;;3.19;2.85;;;;;;;18.29;39.69;101794.77;;;;-57
2020/01/08 03:20:50;;;;;;;3.15;2.85;;;;;;;18.28;39.72;101796.77;;;;-57
2020/01/08 03:23:50;;;;;;;3.00;2.80;;;;;;;18.28;39.68;101803.06;;;;-57
2020/01/08 03:26:51;;;;;;;3.16;2.86;;;;;;;18.27;39.70;101804.72;;;;-57
2020/01/08 03:29:51;;;;;;;3.15;2.85;;;;;;;18.26;39.69;101798.74;;;;-52
2020/01/08 03:32:51;;;;;;;3.27;2.87;;;;;;;18.26;39.70;101800.03;;;;-52
2020/01/08 03:35:51;;;;;;;3.12;2.86;;;;;;;18.24;39.73;101791.58;;;;-51
2020/01/08 03:38:50;;;;;;;3.13;2.79;;;;;;;18.23;39.70;101787.73;;;;-52
2020/01/08 03:41:50;;;;;;;3.08;2.79;;;;;;;18.22;39.74;101788.84;;;;-52
2020/01/08 03:44:51;;;;;;;3.10;2.78;;;;;;;18.22;39.74;101787.22;;;;-53
2020/01/08 03:47:51;;;;;;;3.23;2.93;;;;;;;18.21;39.71;101785.25;;;;-52
2020/01/08 03:50:51;;;;;;;3.44;2.96;;;;;;;18.20;39.70;101775.86;;;;-51
2020/01/08 03:53:51;;;;;;;3.05;2.80;;;;;;;18.19;39.72;101773.91;;;;-51
2020/01/08 03:56:51;;;;;;;2.89;2.68;;;;;;;18.19;39.69;101767.67;;;;-51
2020/01/08 03:59:50;;;;;;;2.88;2.63;;;;;;;18.17;39.72;101775.77;;;;-51
2020/01/08 04:02:50;;;;;;;3.10;2.77;;;;;;;18.18;39.72;101772.73;;;;-52
2020/01/08 04:05:51;;;;;;;3.15;2.85;;;;;;;18.17;39.75;101781.96;;;;-48
2020/01/08 04:08:51;;;;;;;3.09;2.80;;;;;;;18.19;39.77;101789.85;;;;-48
2020/01/08 04:11:51;;;;;;;2.79;2.55;;;;;;;18.20;39.77;101786.13;;;;-52
2020/01/08 04:14:50;;;;;;;3.01;2.71;;;;;;;18.22;39.76;101778.17;;;;-57
2020/01/08 04:17:50;;;;;;;2.87;2.60;;;;;;;18.23;39.74;101771.80;;;;-58
2020/01/08 04:20:52;;;;;;;2.97;2.67;;;;;;;18.25;39.78;101782.28;;;;-52
2020/01/08 04:23:51;;;;;;;2.91;2.65;;;;;;;18.27;39.86;101782.42;;;;-51
2020/01/08 04:26:51;;;;;;;2.99;2.69;;;;;;;18.29;39.86;101767.34;;;;-52
2020/01/08 04:29:51;;;;;;;2.71;2.49;;;;;;;18.33;39.86;101764.90;;;;-52
2020/01/08 04:32:51;;;;;;;3.07;2.77;;;;;;;18.34;39.90;101769.78;;;;-48
2020/01/08 04:35:50;;;;;;;2.83;2.63;;;;;;;18.38;39.85;101767.55;;;;-51
2020/01/08 04:38:51;;;;;;;2.65;2.45;;;;;;;18.41;39.84;101759.79;;;;-52
2020/01/08 04:41:51;;;;;;;2.63;2.43;;;;;;;18.45;39.84;101767.85;;;;-57
2020/01/08 04:44:51;;;;;;;2.96;2.53;;;;;;;18.49;39.88;101760.79;;;;-58
2020/01/08 04:47:51;;;;;;;2.76;2.56;;;;;;;18.54;39.82;101750.65;;;;-57
2020/01/08 04:50:51;;;;;;;2.50;2.30;;;;;;;18.57;39.84;101756.38;;;;-57
2020/01/08 04:53:51;;;;;;;2.65;2.45;;;;;;;18.61;39.85;101737.42;;;;-57
2020/01/08 04:56:51;;;;;;;2.77;2.57;;;;;;;18.63;39.85;101735.05;;;;-52
2020/01/08 04:59:51;;;;;;;2.89;2.59;;;;;;;18.67;39.85;101739.66;;;;-52
2020/01/08 05:02:51;;;;;;;2.85;2.43;;;;;;;18.71;39.84;101742.02;;;;-52
2020/01/08 05:05:51;;;;;;;11.59;3.11;;;;;;;18.65;38.95;101747.72;;;;-52
2020/01/08 05:08:51;;;;;;;4.97;3.25;;;;;;;18.59;38.33;101754.00;;;;-52
2020/01/08 05:11:50;;;;;;;4.67;3.21;;;;;;;18.53;38.00;101739.70;;;;-53
2020/01/08 05:14:50;;;;;;;4.08;3.25;;;;;;;18.47;37.57;101728.23;;;;-53
2020/01/08 05:17:56;;;;;;;6.72;3.57;;;;;;;18.42;37.41;101725.06;;;;-53
2020/01/08 05:20:54;;;;;;;5.23;3.15;;;;;;;18.43;37.71;101721.13;;;;-52
2020/01/08 05:23:51;;;;;;;4.73;3.38;;;;;;;18.48;38.13;101731.16;;;;-52
2020/01/08 05:26:51;;;;;;;12.30;3.10;;;;;;;18.51;38.23;101736.67;;;;-52
2020/01/08 05:29:50;;;;;;;3.86;3.05;;;;;;;18.53;38.36;101742.39;;;;-53
2020/01/08 05:32:50;;;;;;;3.53;3.05;;;;;;;18.56;38.49;101751.34;;;;-52
2020/01/08 05:35:51;;;;;;;4.12;2.72;;;;;;;18.59;38.59;101752.55;;;;-52
2020/01/08 05:38:51;;;;;;;4.37;2.79;;;;;;;18.58;38.68;101755.30;;;;-49
2020/01/08 05:41:51;;;;;;;3.41;2.56;;;;;;;18.61;38.73;101768.76;;;;-49
2020/01/08 05:44:51;;;;;;;3.19;2.89;;;;;;;18.61;38.79;101766.86;;;;-49
2020/01/08 05:47:50;;;;;;;3.13;2.65;;;;;;;18.61;38.85;101759.72;;;;-49
2020/01/08 05:50:50;;;;;;;3.33;2.52;;;;;;;18.61;38.89;101765.54;;;;-49
2020/01/08 05:53:50;;;;;;;3.31;2.39;;;;;;;18.61;38.93;101771.66;;;;-49
2020/01/08 05:56:50;;;;;;;3.69;2.65;;;;;;;18.62;38.99;101778.42;;;;-58
2020/01/08 05:59:51;;;;;;;2.49;2.29;;;;;;;18.62;38.98;101772.56;;;;-49
2020/01/08 06:02:51;;;;;;;2.66;2.46;;;;;;;18.61;39.04;101758.94;;;;-49
2020/01/08 06:05:50;;;;;;;2.93;2.55;;;;;;;18.61;39.05;101748.30;;;;-53
2020/01/08 06:08:50;;;;;;;3.38;2.60;;;;;;;18.61;39.07;101751.98;;;;-53
2020/01/08 06:11:50;;;;;;;3.11;2.54;;;;;;;18.61;39.07;101756.09;;;;-53
2020/01/08 06:14:51;;;;;;;2.73;2.49;;;;;;;18.60;39.14;101761.63;;;;-52
2020/01/08 06:17:51;;;;;;;2.81;2.40;;;;;;;18.60;39.14;101765.23;;;;-52
2020/01/08 06:20:51;;;;;;;2.97;2.50;;;;;;;18.59;39.17;101756.52;;;;-52
2020/01/08 06:23:50;;;;;;;2.87;2.43;;;;;;;18.59;39.16;101760.03;;;;-52
2020/01/08 06:26:50;;;;;;;2.60;2.40;;;;;;;18.58;39.22;101762.91;;;;-52
2020/01/08 06:29:50;;;;;;;2.51;2.29;;;;;;;18.58;39.14;101776.97;;;;-52
2020/01/08 06:32:50;;;;;;;2.63;2.39;;;;;;;18.58;39.20;101780.54;;;;-58
2020/01/08 06:35:51;;;;;;;4.73;2.59;;;;;;;18.61;39.74;101786.61;;;;-51
2020/01/08 06:38:51;;;;;;;2.89;2.36;;;;;;;18.62;39.74;101790.20;;;;-54
2020/01/08 06:41:50;;;;;;;2.54;2.26;;;;;;;18.65;39.74;101794.59;;;;-53
2020/01/08 06:44:50;;;;;;;2.79;2.38;;;;;;;18.69;39.95;101796.36;;;;-50
2020/01/08 06:47:50;;;;;;;3.39;2.55;;;;;;;18.72;40.01;101793.23;;;;-52
2020/01/08 06:50:51;;;;;;;3.69;2.52;;;;;;;18.77;40.21;101796.37;;;;-53
2020/01/08 06:53:51;;;;;;;2.55;2.35;;;;;;;18.81;40.16;101779.63;;;;-47
2020/01/08 06:56:51;;;;;;;2.86;2.35;;;;;;;18.87;40.38;101776.52;;;;-49
2020/01/08 06:59:51;;;;;;;3.08;2.30;;;;;;;18.93;40.51;101771.63;;;;-55
2020/01/08 07:02:50;;;;;;;4.27;2.50;;;;;;;18.98;40.08;101770.70;;;;-52
2020/01/08 07:05:50;;;;;;;3.21;2.13;;;;;;;19.03;40.41;101782.81;;;;-53
2020/01/08 07:08:50;;;;;;;2.61;2.24;;;;;;;19.06;40.34;101786.09;;;;-50
2020/01/08 07:11:51;;;;;;;3.07;2.21;;;;;;;19.08;40.60;101796.70;;;;-52
2020/01/08 07:14:51;;;;;;;6.51;2.83;;;;;;;19.05;38.96;101807.63;;;;-55
2020/01/08 07:17:50;;;;;;;4.07;2.55;;;;;;;19.05;39.11;101800.03;;;;-50
2020/01/08 07:20:50;;;;;;;6.15;2.57;;;;;;;19.07;39.65;101783.57;;;;-51
2020/01/08 07:23:50;;;;;;;6.51;2.73;;;;;;;19.10;39.73;101785.13;;;;-57
2020/01/08 07:26:50;;;;;;;4.65;2.44;;;;;;;19.14;40.06;101789.40;;;;-52
2020/01/08 07:29:51;;;;;;;3.98;2.53;;;;;;;19.18;40.11;101800.10;;;;-54
2020/01/08 07:32:51;;;;;;;3.34;2.69;;;;;;;19.22;40.15;101801.06;;;;-54
2020/01/08 07:35:51;;;;;;;4.13;2.62;;;;;;;19.24;39.98;101794.05;;;;-59
2020/01/08 07:38:50;;;;;;;3.24;2.55;;;;;;;19.27;40.31;101792.52;;;;-54
2020/01/08 07:42:04;;;;;;;3.31;2.33;;;;;;;19.30;40.18;101796.95;;;;-56
2020/01/08 07:44:50;;;;;;;3.45;2.52;;;;;;;19.34;40.39;101792.35;;;;-57
2020/01/08 07:47:51;;;;;;;6.05;2.50;;;;;;;19.36;39.97;101801.48;;;;-59
2020/01/08 07:50:51;;;;;;;3.99;2.37;;;;;;;19.37;39.64;101791.39;;;;-58
2020/01/08 07:53:51;;;;;;;6.13;2.63;;;;;;;19.36;39.64;101790.32;;;;-54
2020/01/08 07:56:50;;;;;;;8.82;2.90;;;;;;;19.40;39.36;101788.47;;;;-56
2020/01/08 07:59:50;;;;;;;4.81;2.55;;;;;;;19.42;39.53;101783.30;;;;-56
2020/01/08 08:02:50;;;;;;;5.26;2.50;;;;;;;19.47;39.68;101787.09;;;;-52
2020/01/08 08:05:51;;;;;;;4.49;2.40;;;;;;;19.52;39.82;101790.93;;;;-59
2020/01/08 08:08:51;;;;;;;7.97;2.65;;;;;;;19.55;39.76;101792.47;;;;-57
2020/01/08 08:11:51;;;;;;;3.61;2.33;;;;;;;19.59;40.10;101792.89;;;;-54
2020/01/08 08:14:50;;;;;;;4.09;2.50;;;;;;;19.58;39.79;101796.03;;;;-54
2020/01/08 08:17:50;;;;;;;3.94;2.85;;;;;;;19.56;39.26;101804.95;;;;-58
2020/01/08 08:20:50;;;;;;;4.83;3.25;;;;;;;19.55;39.30;101809.63;;;;-57
2020/01/08 08:23:50;;;;;;;4.91;3.13;;;;;;;19.55;38.86;101813.47;;;;-53
2020/01/08 08:26:50;;;;;;;5.44;3.03;;;;;;;19.58;39.43;101822.57;;;;-58
2020/01/08 08:29:50;;;;;;;7.94;2.91;;;;;;;19.60;38.76;101830.05;;;;-58
2020/01/08 08:32:50;;;;;;;4.01;2.67;;;;;;;19.62;38.93;101829.03;;;;-58
2020/01/08 08:35:58;;;;;;;3.47;2.40;;;;;;;19.64;38.95;101830.82;;;;-58
2020/01/08 08:38:51;;;;;;;3.27;2.43;;;;;;;19.66;39.03;101835.94;;;;-57
2020/01/08 08:41:57;;;;;;;3.88;2.53;;;;;;;19.68;39.10;101833.95;;;;-57
2020/01/08 08:45:17;;;;;;;3.25;2.51;;;;;;;19.70;39.04;101837.89;;;;-58
2020/01/08 08:47:51;;;;;;;2.86;2.49;;;;;;;19.72;38.99;101840.03;;;;-58
2020/01/08 08:50:50;;;;;;;4.28;2.55;;;;;;;19.73;39.13;101830.59;;;;-58
2020/01/08 08:53:50;;;;;;;3.70;2.50;;;;;;;19.74;38.97;101818.48;;;;-58
2020/01/08 08:56:50;;;;;;;3.93;2.35;;;;;;;19.75;38.95;101815.24;;;;-58
2020/01/08 08:59:50;;;;;;;3.70;2.30;;;;;;;19.78;38.99;101818.75;;;;-58
2020/01/08 09:02:50;;;;;;;3.38;2.43;;;;;;;19.79;38.94;101807.17;;;;-58
2020/01/08 09:05:51;;;;;;;3.87;2.25;;;;;;;19.80;38.97;101798.02;;;;-58
2020/01/08 09:10:11;;;;;;;3.18;2.33;;;;;;;19.82;39.04;101802.34;;;;-58
2020/01/08 09:12:50;;;;;;;2.61;2.30;;;;;;;19.82;38.95;101814.59;;;;-59
2020/01/08 09:15:50;;;;;;;4.39;2.43;;;;;;;19.85;38.93;101818.52;;;;-58
2020/01/08 09:18:50;;;;;;;3.51;2.33;;;;;;;19.86;38.93;101823.95;;;;-58
2020/01/08 09:21:51;;;;;;;5.68;2.50;;;;;;;19.93;39.19;101836.11;;;;-58
2020/01/08 09:24:50;;;;;;;6.91;2.52;;;;;;;19.94;39.03;101850.47;;;;-59
2020/01/08 09:27:50;;;;;;;3.18;2.40;;;;;;;19.95;39.18;101843.95;;;;-58
2020/01/08 09:30:50;;;;;;;4.19;2.10;;;;;;;19.97;39.17;101842.91;;;;-53
2020/01/08 09:33:50;;;;;;;5.01;2.38;;;;;;;20.01;39.18;101843.20;;;;-58
2020/01/08 09:36:53;;;;;;;3.86;2.35;;;;;;;20.00;38.92;101844.64;;;;-58
2020/01/08 09:39:52;;;;;;;2.54;2.29;;;;;;;20.00;38.90;101849.17;;;;-58
2020/01/08 09:42:51;;;;;;;3.00;2.17;;;;;;;20.00;38.89;101852.23;;;;-58
2020/01/08 09:45:50;;;;;;;3.97;2.35;;;;;;;20.01;38.90;101851.70;;;;-57
2020/01/08 09:48:50;;;;;;;4.44;2.59;;;;;;;20.08;39.03;101856.07;;;;-56
2020/01/08 09:51:50;;;;;;;7.25;2.29;;;;;;;20.10;39.21;101848.13;;;;-58
2020/01/08 09:54:50;;;;;;;3.16;2.02;;;;;;;20.14;39.24;101837.43;;;;-58
2020/01/08 09:57:50;;;;;;;2.85;2.15;;;;;;;20.15;39.33;101831.30;;;;-58
2020/01/08 10:00:50;;;;;;;3.47;2.21;;;;;;;20.16;39.22;101824.72;;;;-57
2020/01/08 10:03:51;;;;;;;2.62;2.20;;;;;;;20.20;39.25;101822.60;;;;-58
2020/01/08 10:06:51;;;;;;;3.61;2.21;;;;;;;20.19;39.29;101822.72;;;;-58
2020/01/08 10:09:50;;;;;;;2.73;2.31;;;;;;;20.18;39.04;101818.69;;;;-57
2020/01/08 10:12:50;;;;;;;6.15;2.55;;;;;;;20.19;38.57;101818.52;;;;-61
2020/01/08 10:15:50;;;;;;;3.23;2.20;;;;;;;20.21;39.28;101810.27;;;;-58
2020/01/08 10:18:50;;;;;;;5.11;2.20;;;;;;;20.22;39.03;101806.98;;;;-54
2020/01/08 10:21:51;;;;;;;3.74;2.17;;;;;;;20.23;39.32;101799.21;;;;-58
2020/01/08 10:24:50;;;;;;;6.35;2.31;;;;;;;20.25;39.27;101792.80;;;;-59
2020/01/08 10:27:50;;;;;;;2.76;2.29;;;;;;;20.27;39.02;101787.44;;;;-54
2020/01/08 10:30:50;;;;;;;2.43;2.11;;;;;;;20.27;38.87;101789.28;;;;-55
2020/01/08 10:33:50;;;;;;;2.98;2.09;;;;;;;20.28;38.70;101784.14;;;;-54
2020/01/08 10:36:50;;;;;;;2.66;2.18;;;;;;;20.28;38.80;101785.48;;;;-54
2020/01/08 10:39:51;;;;;;;2.70;2.00;;;;;;;20.29;38.74;101781.86;;;;-54
2020/01/08 10:42:50;;;;;;;2.95;2.23;;;;;;;20.30;38.54;101779.24;;;;-55
2020/01/08 10:45:50;;;;;;;2.87;2.25;;;;;;;20.30;38.55;101773.25;;;;-54
2020/01/08 10:48:50;;;;;;;2.61;2.06;;;;;;;20.31;38.67;101772.42;;;;-55
2020/01/08 10:51:50;;;;;;;2.43;2.10;;;;;;;20.32;38.68;101774.67;;;;-55
2020/01/08 10:54:50;;;;;;;2.89;2.05;;;;;;;20.32;38.60;101776.06;;;;-54
2020/01/08 10:57:50;;;;;;;2.70;2.04;;;;;;;20.37;38.86;101776.61;;;;-56
2020/01/08 11:00:50;;;;;;;3.47;2.07;;;;;;;20.36;39.06;101774.30;;;;-57
2020/01/08 11:03:50;;;;;;;2.19;1.99;;;;;;;20.40;39.16;101770.23;;;;-56
2020/01/08 11:06:50;;;;;;;3.09;2.23;;;;;;;20.42;39.20;101775.13;;;;-50
2020/01/08 11:09:50;;;;;;;5.18;2.12;;;;;;;20.45;39.53;101774.14;;;;-55
2020/01/08 11:12:51;;;;;;;3.44;2.06;;;;;;;20.47;39.79;101777.33;;;;-53
2020/01/08 11:15:50;;;;;;;6.40;2.37;;;;;;;20.47;38.97;101777.17;;;;-57
2020/01/08 11:18:50;;;;;;;4.37;2.10;;;;;;;20.50;39.35;101777.25;;;;-52
2020/01/08 11:21:51;;;;;;;3.60;2.26;;;;;;;20.51;39.28;101772.33;;;;-52
2020/01/08 11:24:51;;;;;;;3.05;2.08;;;;;;;20.51;39.19;101771.49;;;;-54
2020/01/08 11:27:50;;;;;;;3.06;2.20;;;;;;;20.52;39.22;101770.38;;;;-53
2020/01/08 11:30:56;;;;;;;2.90;2.15;;;;;;;20.56;39.62;101764.75;;;;-52
2020/01/08 11:33:50;;;;;;;5.07;2.36;;;;;;;20.55;39.17;101764.75;;;;-48
2020/01/08 11:36:50;;;;;;;5.46;2.11;;;;;;;20.56;39.15;101770.63;;;;-48
2020/01/08 11:39:50;;;;;;;2.52;1.99;;;;;;;20.56;39.38;101763.41;;;;-48
2020/01/08 11:42:50;;;;;;;3.24;2.02;;;;;;;20.56;39.33;101763.92;;;;-48
2020/01/08 11:45:50;;;;;;;2.65;1.99;;;;;;;20.57;39.30;101756.92;;;;-48
2020/01/08 11:48:50;;;;;;;8.21;2.29;;;;;;;20.57;39.51;101754.58;;;;-48
2020/01/08 11:51:51;;;;;;;3.06;2.06;;;;;;;20.60;39.51;101750.11;;;;-51
2020/01/08 11:54:51;;;;;;;5.67;2.35;;;;;;;20.60;39.69;101748.37;;;;-50
2020/01/08 11:57:50;;;;;;;4.90;2.11;;;;;;;20.58;39.49;101744.89;;;;-51
2020/01/08 12:00:50;;;;;;;6.26;2.21;;;;;;;20.60;39.25;101754.64;;;;-49
2020/01/08 12:03:50;;;;;;;2.71;1.95;;;;;;;20.58;39.28;101752.63;;;;-49
2020/01/08 12:06:50;;;;;;;3.07;1.86;;;;;;;20.57;39.12;101745.69;;;;-49
2020/01/08 12:09:50;;;;;;;4.07;2.11;;;;;;;20.56;39.21;101743.59;;;;-49
2020/01/08 12:12:51;;;;;;;2.85;1.92;;;;;;;20.55;39.13;101734.25;;;;-49
2020/01/08 12:15:50;;;;;;;2.80;2.08;;;;;;;20.56;39.16;101729.05;;;;-49
2020/01/08 12:18:50;;;;;;;2.60;1.85;;;;;;;20.55;39.14;101722.05;;;;-49
2020/01/08 12:21:50;;;;;;;3.56;2.17;;;;;;;20.55;39.02;101720.04;;;;-49
2020/01/08 12:24:50;;;;;;;2.82;1.90;;;;;;;20.55;38.98;101717.52;;;;-57
2020/01/08 12:27:50;;;;;;;3.13;1.86;;;;;;;20.55;38.99;101711.48;;;;-57
2020/01/08 12:30:50;;;;;;;2.45;1.82;;;;;;;20.55;38.97;101707.95;;;;-57
2020/01/08 12:33:50;;;;;;;2.67;2.10;;;;;;;20.56;38.96;101699.79;;;;-57
2020/01/08 12:36:50;;;;;;;2.56;1.81;;;;;;;20.56;38.98;101695.42;;;;-58
2020/01/08 12:39:50;;;;;;;1.97;1.77;;;;;;;20.56;38.97;101691.13;;;;-57
2020/01/08 12:42:50;;;;;;;1.99;1.70;;;;;;;20.57;38.95;101688.16;;;;-57
2020/01/08 12:45:50;;;;;;;2.13;1.80;;;;;;;20.56;38.98;101682.69;;;;-57
2020/01/08 12:48:50;;;;;;;2.12;1.83;;;;;;;20.57;38.89;101685.02;;;;-57
2020/01/08 12:51:51;;;;;;;2.97;1.93;;;;;;;20.57;38.98;101682.41;;;;-58
2020/01/08 12:54:50;;;;;;;2.51;2.08;;;;;;;20.58;38.96;101682.68;;;;-57
2020/01/08 12:57:50;;;;;;;2.18;1.95;;;;;;;20.58;38.98;101683.02;;;;-57
2020/01/08 13:00:50;;;;;;;3.66;1.89;;;;;;;20.57;38.94;101684.76;;;;-57
2020/01/08 13:03:50;;;;;;;3.19;1.80;;;;;;;20.58;38.98;101678.31;;;;-57
2020/01/08 13:06:50;;;;;;;2.37;1.93;;;;;;;20.57;38.98;101683.75;;;;-57
2020/01/08 13:09:50;;;;;;;2.38;1.93;;;;;;;20.57;38.90;101675.86;;;;-57
2020/01/08 13:12:50;;;;;;;2.24;1.90;;;;;;;20.60;38.89;101676.80;;;;-59
2020/01/08 13:15:50;;;;;;;3.45;1.94;;;;;;;20.60;39.21;101669.70;;;;-53
2020/01/08 13:18:50;;;;;;;3.11;1.89;;;;;;;20.61;39.36;101668.47;;;;-56
2020/01/08 13:22:07;;;;;;;2.37;1.79;;;;;;;20.62;39.39;101673.02;;;;-56
2020/01/08 13:25:03;;;;;;;2.70;1.89;;;;;;;20.64;39.41;101677.16;;;;-59
2020/01/08 13:27:50;;;;;;;2.27;1.90;;;;;;;20.66;39.46;101677.06;;;;-54
2020/01/08 13:30:50;;;;;;;2.51;1.78;;;;;;;20.67;39.38;101678.86;;;;-58
2020/01/08 13:33:50;;;;;;;2.13;1.90;;;;;;;20.69;39.44;101682.44;;;;-54
2020/01/08 13:36:50;;;;;;;3.28;2.07;;;;;;;20.67;39.45;101685.08;;;;-59
2020/01/08 13:39:50;;;;;;;2.65;2.41;;;;;;;20.62;38.44;101690.14;;;;-55
2020/01/08 13:42:50;;;;;;;3.85;2.23;;;;;;;20.65;38.80;101693.95;;;;-56
2020/01/08 13:45:50;;;;;;;3.59;2.00;;;;;;;20.68;38.93;101691.44;;;;-55
2020/01/08 13:48:50;;;;;;;2.21;1.99;;;;;;;20.73;39.30;101686.09;;;;-58
2020/01/08 13:51:50;;;;;;;2.63;2.03;;;;;;;20.75;39.34;101679.16;;;;-58
2020/01/08 13:54:50;;;;;;;2.11;1.89;;;;;;;20.77;39.34;101663.56;;;;-55
2020/01/08 13:57:50;;;;;;;2.27;2.07;;;;;;;20.79;39.61;101662.95;;;;-54
2020/01/08 14:00:50;;;;;;;2.23;1.84;;;;;;;20.80;39.53;101661.86;;;;-54
2020/01/08 14:03:50;;;;;;;3.79;2.06;;;;;;;20.82;39.51;101672.95;;;;-58
2020/01/08 14:06:50;;;;;;;2.85;2.00;;;;;;;20.84;39.66;101675.76;;;;-58
2020/01/08 14:09:50;;;;;;;3.91;2.19;;;;;;;20.83;39.69;101681.63;;;;-61
2020/01/08 14:12:50;;;;;;;2.59;1.91;;;;;;;20.87;39.94;101683.22;;;;-53
2020/01/08 14:15:50;;;;;;;3.99;1.95;;;;;;;20.86;39.87;101675.92;;;;-53
2020/01/08 14:18:50;;;;;;;5.01;2.10;;;;;;;20.88;39.68;101677.39;;;;-50
2020/01/08 14:21:50;;;;;;;4.40;2.16;;;;;;;20.80;38.98;101674.73;;;;-56
2020/01/08 14:24:50;;;;;;;3.31;2.20;;;;;;;20.82;39.17;101667.92;;;;-55
2020/01/08 14:27:50;;;;;;;3.09;2.15;;;;;;;20.83;39.39;101666.84;;;;-53
2020/01/08 14:30:50;;;;;;;3.13;2.16;;;;;;;20.83;39.62;101667.91;;;;-56
2020/01/08 14:33:50;;;;;;;3.25;2.01;;;;;;;20.84;39.58;101666.92;;;;-52
2020/01/08 14:36:50;;;;;;;4.84;2.03;;;;;;;20.85;39.54;101672.73;;;;-55
2020/01/08 14:39:50;;;;;;;3.05;2.03;;;;;;;20.86;39.51;101674.30;;;;-58
2020/01/08 14:42:50;;;;;;;4.69;2.22;;;;;;;20.86;39.35;101681.48;;;;-54
2020/01/08 14:45:54;;;;;;;6.51;2.35;;;;;;;20.85;39.24;101678.17;;;;-57
2020/01/08 14:48:57;;;;;;;3.95;2.19;;;;;;;20.87;39.63;101681.30;;;;-52
2020/01/08 14:51:50;;;;;;;4.12;2.20;;;;;;;20.85;39.50;101676.26;;;;-49
2020/01/08 14:54:50;;;;;;;2.38;2.11;;;;;;;20.88;39.57;101677.34;;;;-48
2020/01/08 14:57:51;;;;;;;2.76;2.19;;;;;;;20.88;39.40;101681.20;;;;-51
2020/01/08 15:00:50;;;;;;;2.57;2.29;;;;;;;20.88;39.36;101675.83;;;;-50
2020/01/08 15:03:50;;;;;;;2.61;2.13;;;;;;;20.91;39.41;101669.95;;;;-51
2020/01/08 15:06:50;;;;;;;4.09;2.15;;;;;;;20.88;39.14;101662.50;;;;-50
2020/01/08 15:09:50;;;;;;;3.35;2.00;;;;;;;20.88;39.07;101665.69;;;;-50
2020/01/08 15:12:50;;;;;;;3.61;2.27;;;;;;;20.87;39.16;101669.78;;;;-50
2020/01/08 15:15:50;;;;;;;2.35;2.12;;;;;;;20.86;39.07;101671.95;;;;-50
2020/01/08 15:18:50;;;;;;;2.20;2.00;;;;;;;20.85;39.05;101666.52;;;;-51
2020/01/08 15:21:50;;;;;;;2.45;2.01;;;;;;;20.85;39.07;101666.08;;;;-49
2020/01/08 15:24:50;;;;;;;2.65;2.02;;;;;;;20.83;39.03;101668.02;;;;-50
2020/01/08 15:27:50;;;;;;;4.99;2.18;;;;;;;20.82;39.13;101668.66;;;;-49
2020/01/08 15:30:50;;;;;;;3.29;2.63;;;;;;;20.77;38.16;101666.02;;;;-46
2020/01/08 15:33:50;;;;;;;3.20;2.90;;;;;;;20.74;38.34;101661.09;;;;-50
2020/01/08 15:36:50;;;;;;;3.48;2.73;;;;;;;20.73;38.51;101663.38;;;;-46
2020/01/08 15:39:50;;;;;;;11.22;2.87;;;;;;;20.80;40.24;101659.79;;;;-47
2020/01/08 15:42:50;;;;;;;7.31;2.54;;;;;;;20.86;39.88;101656.06;;;;-46
2020/01/08 15:45:50;;;;;;;5.38;2.55;;;;;;;20.87;39.52;101655.84;;;;-51
2020/01/08 15:48:50;;;;;;;5.30;2.57;;;;;;;20.88;39.75;101655.45;;;;-47
2020/01/08 15:51:50;;;;;;;4.27;2.77;;;;;;;20.89;39.67;101655.73;;;;-49
2020/01/08 15:54:50;;;;;;;3.54;2.46;;;;;;;20.90;39.88;101653.11;;;;-51
2020/01/08 15:57:50;;;;;;;3.99;2.55;;;;;;;20.92;40.05;101649.58;;;;-51
2020/01/08 16:00:50;;;;;;;5.53;2.43;;;;;;;20.93;39.93;101652.55;;;;-52
2020/01/08 16:03:50;;;;;;;4.00;2.75;;;;;;;20.95;40.18;101660.61;;;;-49
2020/01/08 16:06:50;;;;;;;2.72;2.46;;;;;;;20.95;39.93;101655.14;;;;-49
2020/01/08 16:09:50;;;;;;;3.55;2.50;;;;;;;20.97;40.24;101661.52;;;;-50
2020/01/08 16:12:50;;;;;;;2.76;2.22;;;;;;;20.97;40.01;101661.14;;;;-51
2020/01/08 16:15:50;;;;;;;3.26;2.39;;;;;;;20.98;40.12;101657.10;;;;-52
2020/01/08 16:18:50;;;;;;;4.91;2.56;;;;;;;20.99;40.17;101657.89;;;;-50
2020/01/08 16:21:50;;;;;;;4.79;2.58;;;;;;;21.00;40.18;101659.97;;;;-51
2020/01/08 16:24:50;;;;;;;4.49;2.47;;;;;;;21.00;40.11;101662.08;;;;-53
2020/01/08 16:27:50;;;;;;;3.95;2.39;;;;;;;21.00;39.95;101665.34;;;;-56
2020/01/08 16:30:50;;;;;;;3.93;2.46;;;;;;;21.01;40.36;101669.03;;;;-50
2020/01/08 16:33:50;;;;;;;3.69;2.43;;;;;;;21.03;39.89;101672.49;;;;-49
2020/01/08 16:36:50;;;;;;;4.53;2.49;;;;;;;21.03;40.05;101673.07;;;;-52
2020/01/08 16:39:50;;;;;;;2.93;2.37;;;;;;;21.06;40.42;101677.48;;;;-53
2020/01/08 16:42:50;;;;;;;3.90;2.46;;;;;;;21.07;40.42;101677.16;;;;-52
2020/01/08 16:45:50;;;;;;;3.86;2.48;;;;;;;21.06;40.18;101678.22;;;;-52
2020/01/08 16:48:50;;;;;;;2.92;2.60;;;;;;;21.07;40.22;101678.34;;;;-48